sensor_id;sensor_type;location;lat;lon;timestamp;temperature;humidity
19085;DHT22;9675;51.538;6.728;2023-04-24T00:02:00;13.10;99.90
19085;DHT22;9675;51.538;6.728;2023-04-24T00:04:27;13.10;99.90
19085;DHT22;9675;51.538;6.728;2023-04-24T00:06:54;13.00;99.90
19085;DHT22;9675;51.538;6.728;2023-04-24T00:09:23;13.10;99.90
19085;DHT22;9675;51.538;6.728;2023-04-24T00:11:51;13.10;99.90
19085;DHT22;9675;51.538;6.728;2023-04-24T00:14:19;13.10;99.90
19085;DHT22;9675;51.538;6.728;2023-04-24T00:16:46;13.10;99.90
19085;DHT22;9675;51.538;6.728;2023-04-24T00:19:13;13.00;99.90
19085;DHT22;9675;51.538;6.728;2023-04-24T00:21:40;13.00;99.90
19085;DHT22;9675;51.538;6.728;2023-04-24T00:24:07;13.00;99.90
19085;DHT22;9675;51.538;6.728;2023-04-24T00:26:37;13.00;99.90
19085;DHT22;9675;51.538;6.728;2023-04-24T00:29:04;13.00;99.90
19085;DHT22;9675;51.538;6.728;2023-04-24T00:31:31;13.00;99.90
19085;DHT22;9675;51.538;6.728;2023-04-24T00:34:00;13.00;99.90
19085;DHT22;9675;51.538;6.728;2023-04-24T00:36:27;13.00;99.90
19085;DHT22;9675;51.538;6.728;2023-04-24T00:38:56;13.00;99.90
19085;DHT22;9675;51.538;6.728;2023-04-24T00:41:24;12.90;99.90
19085;DHT22;9675;51.538;6.728;2023-04-24T00:43:53;12.90;99.90
19085;DHT22;9675;51.538;6.728;2023-04-24T00:46:21;12.90;99.90
19085;DHT22;9675;51.538;6.728;2023-04-24T00:48:48;12.90;99.90
19085;DHT22;9675;51.538;6.728;2023-04-24T00:51:16;12.80;99.90
19085;DHT22;9675;51.538;6.728;2023-04-24T00:53:44;12.90;99.90
19085;DHT22;9675;51.538;6.728;2023-04-24T00:56:11;12.90;99.90
19085;DHT22;9675;51.538;6.728;2023-04-24T00:58:38;12.80;99.90
19085;DHT22;9675;51.538;6.728;2023-04-24T01:01:08;12.80;99.90
19085;DHT22;9675;51.538;6.728;2023-04-24T01:03:37;12.80;99.90
19085;DHT22;9675;51.538;6.728;2023-04-24T01:06:05;12.70;99.90
19085;DHT22;9675;51.538;6.728;2023-04-24T01:08:34;12.70;99.90
19085;DHT22;9675;51.538;6.728;2023-04-24T01:11:04;12.70;99.90
19085;DHT22;9675;51.538;6.728;2023-04-24T01:13:31;12.70;99.90
19085;DHT22;9675;51.538;6.728;2023-04-24T01:15:59;12.70;99.90
19085;DHT22;9675;51.538;6.728;2023-04-24T01:18:29;12.70;99.90
19085;DHT22;9675;51.538;6.728;2023-04-24T01:20:58;12.70;99.90
19085;DHT22;9675;51.538;6.728;2023-04-24T01:23:30;12.60;99.90
19085;DHT22;9675;51.538;6.728;2023-04-24T01:25:57;12.60;99.90
19085;DHT22;9675;51.538;6.728;2023-04-24T01:28:25;12.60;99.90
19085;DHT22;9675;51.538;6.728;2023-04-24T01:30:53;12.60;99.90
19085;DHT22;9675;51.538;6.728;2023-04-24T01:33:21;12.60;99.90
19085;DHT22;9675;51.538;6.728;2023-04-24T01:35:48;12.60;99.90
19085;DHT22;9675;51.538;6.728;2023-04-24T01:38:16;12.60;99.90
19085;DHT22;9675;51.538;6.728;2023-04-24T01:40:44;12.60;99.90
19085;DHT22;9675;51.538;6.728;2023-04-24T01:43:12;12.50;99.90
19085;DHT22;9675;51.538;6.728;2023-04-24T01:45:39;12.50;99.90
19085;DHT22;9675;51.538;6.728;2023-04-24T01:48:06;12.50;99.90
19085;DHT22;9675;51.538;6.728;2023-04-24T01:50:33;12.50;99.90
19085;DHT22;9675;51.538;6.728;2023-04-24T01:53:01;12.50;99.90
19085;DHT22;9675;51.538;6.728;2023-04-24T01:55:28;12.50;99.90
19085;DHT22;9675;51.538;6.728;2023-04-24T01:57:56;12.40;99.90
19085;DHT22;9675;51.538;6.728;2023-04-24T02:00:26;12.40;99.90
19085;DHT22;9675;51.538;6.728;2023-04-24T02:02:53;12.40;99.90
19085;DHT22;9675;51.538;6.728;2023-04-24T02:05:20;12.40;99.90
19085;DHT22;9675;51.538;6.728;2023-04-24T02:07:47;12.40;99.90
19085;DHT22;9675;51.538;6.728;2023-04-24T02:10:14;12.30;99.90
19085;DHT22;9675;51.538;6.728;2023-04-24T02:12:42;12.40;99.90
19085;DHT22;9675;51.538;6.728;2023-04-24T02:15:11;12.40;99.90
19085;DHT22;9675;51.538;6.728;2023-04-24T02:17:38;12.30;99.90
19085;DHT22;9675;51.538;6.728;2023-04-24T02:20:07;12.30;99.90
19085;DHT22;9675;51.538;6.728;2023-04-24T02:22:34;12.30;99.90
19085;DHT22;9675;51.538;6.728;2023-04-24T02:25:01;12.30;99.90
19085;DHT22;9675;51.538;6.728;2023-04-24T02:27:29;12.30;99.90
19085;DHT22;9675;51.538;6.728;2023-04-24T02:29:56;12.30;99.90
19085;DHT22;9675;51.538;6.728;2023-04-24T02:32:24;12.30;99.90
19085;DHT22;9675;51.538;6.728;2023-04-24T02:34:51;12.30;99.90
19085;DHT22;9675;51.538;6.728;2023-04-24T02:37:18;12.30;99.90
19085;DHT22;9675;51.538;6.728;2023-04-24T02:39:45;12.20;99.90
19085;DHT22;9675;51.538;6.728;2023-04-24T02:42:12;12.30;99.90
19085;DHT22;9675;51.538;6.728;2023-04-24T02:44:39;12.20;99.90
19085;DHT22;9675;51.538;6.728;2023-04-24T02:47:06;12.20;99.90
19085;DHT22;9675;51.538;6.728;2023-04-24T02:49:35;12.20;99.90
19085;DHT22;9675;51.538;6.728;2023-04-24T02:52:02;12.20;99.90
19085;DHT22;9675;51.538;6.728;2023-04-24T02:54:29;12.10;99.90
19085;DHT22;9675;51.538;6.728;2023-04-24T02:56:56;12.20;99.90
19085;DHT22;9675;51.538;6.728;2023-04-24T02:59:23;12.20;99.90
19085;DHT22;9675;51.538;6.728;2023-04-24T03:01:52;12.10;99.90
19085;DHT22;9675;51.538;6.728;2023-04-24T03:04:19;12.10;99.90
19085;DHT22;9675;51.538;6.728;2023-04-24T03:06:49;12.10;99.90
19085;DHT22;9675;51.538;6.728;2023-04-24T03:09:18;12.10;99.90
19085;DHT22;9675;51.538;6.728;2023-04-24T03:11:45;12.10;99.90
19085;DHT22;9675;51.538;6.728;2023-04-24T03:14:12;12.10;99.90
19085;DHT22;9675;51.538;6.728;2023-04-24T03:16:39;12.10;99.90
19085;DHT22;9675;51.538;6.728;2023-04-24T03:19:06;12.00;99.90
19085;DHT22;9675;51.538;6.728;2023-04-24T03:21:33;12.10;99.90
19085;DHT22;9675;51.538;6.728;2023-04-24T03:24:02;12.00;99.90
19085;DHT22;9675;51.538;6.728;2023-04-24T03:26:29;12.00;99.90
19085;DHT22;9675;51.538;6.728;2023-04-24T03:28:56;12.00;99.90
19085;DHT22;9675;51.538;6.728;2023-04-24T03:31:23;12.00;99.90
19085;DHT22;9675;51.538;6.728;2023-04-24T03:33:50;12.00;99.90
19085;DHT22;9675;51.538;6.728;2023-04-24T03:36:17;12.00;99.90
19085;DHT22;9675;51.538;6.728;2023-04-24T03:38:44;12.00;99.90
19085;DHT22;9675;51.538;6.728;2023-04-24T03:41:13;11.90;99.90
19085;DHT22;9675;51.538;6.728;2023-04-24T03:43:40;11.90;99.90
19085;DHT22;9675;51.538;6.728;2023-04-24T03:46:07;12.00;99.90
19085;DHT22;9675;51.538;6.728;2023-04-24T03:48:35;12.00;99.90
19085;DHT22;9675;51.538;6.728;2023-04-24T03:51:02;11.90;99.90
19085;DHT22;9675;51.538;6.728;2023-04-24T03:53:29;12.00;99.90
19085;DHT22;9675;51.538;6.728;2023-04-24T03:55:56;11.90;99.90
19085;DHT22;9675;51.538;6.728;2023-04-24T03:58:24;11.90;99.90
19085;DHT22;9675;51.538;6.728;2023-04-24T04:00:51;11.90;99.90
19085;DHT22;9675;51.538;6.728;2023-04-24T04:03:18;11.90;99.90
19085;DHT22;9675;51.538;6.728;2023-04-24T04:05:46;11.90;99.90
19085;DHT22;9675;51.538;6.728;2023-04-24T04:08:13;11.90;99.90
19085;DHT22;9675;51.538;6.728;2023-04-24T04:10:40;11.80;99.90
19085;DHT22;9675;51.538;6.728;2023-04-24T04:13:07;11.90;99.90
19085;DHT22;9675;51.538;6.728;2023-04-24T04:15:35;11.90;99.90
19085;DHT22;9675;51.538;6.728;2023-04-24T04:18:02;11.80;99.90
19085;DHT22;9675;51.538;6.728;2023-04-24T04:20:30;11.90;99.90
19085;DHT22;9675;51.538;6.728;2023-04-24T04:22:57;11.90;99.90
19085;DHT22;9675;51.538;6.728;2023-04-24T04:25:24;11.80;99.90
19085;DHT22;9675;51.538;6.728;2023-04-24T04:27:51;11.80;99.90
19085;DHT22;9675;51.538;6.728;2023-04-24T04:30:19;11.80;99.90
19085;DHT22;9675;51.538;6.728;2023-04-24T04:32:47;11.80;99.90
19085;DHT22;9675;51.538;6.728;2023-04-24T04:35:15;11.70;99.90
19085;DHT22;9675;51.538;6.728;2023-04-24T04:37:42;11.80;99.90
19085;DHT22;9675;51.538;6.728;2023-04-24T04:40:09;11.80;99.90
19085;DHT22;9675;51.538;6.728;2023-04-24T04:42:37;11.80;99.90
19085;DHT22;9675;51.538;6.728;2023-04-24T04:45:06;11.70;99.90
19085;DHT22;9675;51.538;6.728;2023-04-24T04:47:37;11.70;99.90
19085;DHT22;9675;51.538;6.728;2023-04-24T04:50:07;11.80;99.90
19085;DHT22;9675;51.538;6.728;2023-04-24T04:52:34;11.70;99.90
19085;DHT22;9675;51.538;6.728;2023-04-24T04:55:01;11.70;99.90
19085;DHT22;9675;51.538;6.728;2023-04-24T04:57:29;11.70;99.90
19085;DHT22;9675;51.538;6.728;2023-04-24T04:59:56;11.70;99.90
19085;DHT22;9675;51.538;6.728;2023-04-24T05:02:24;11.70;99.90
19085;DHT22;9675;51.538;6.728;2023-04-24T05:04:51;11.70;99.90
19085;DHT22;9675;51.538;6.728;2023-04-24T05:07:20;11.70;99.90
19085;DHT22;9675;51.538;6.728;2023-04-24T05:09:47;11.60;99.90
19085;DHT22;9675;51.538;6.728;2023-04-24T05:12:14;11.60;99.90
19085;DHT22;9675;51.538;6.728;2023-04-24T05:14:41;11.70;99.90
19085;DHT22;9675;51.538;6.728;2023-04-24T05:17:08;11.60;99.90
19085;DHT22;9675;51.538;6.728;2023-04-24T05:19:35;11.70;99.90
19085;DHT22;9675;51.538;6.728;2023-04-24T05:22:04;11.70;99.90
19085;DHT22;9675;51.538;6.728;2023-04-24T05:24:33;11.60;99.90
19085;DHT22;9675;51.538;6.728;2023-04-24T05:27:01;11.60;99.90
19085;DHT22;9675;51.538;6.728;2023-04-24T05:29:30;11.60;99.90
19085;DHT22;9675;51.538;6.728;2023-04-24T05:31:58;11.70;99.90
19085;DHT22;9675;51.538;6.728;2023-04-24T05:34:26;11.70;99.90
19085;DHT22;9675;51.538;6.728;2023-04-24T05:36:53;11.60;99.90
19085;DHT22;9675;51.538;6.728;2023-04-24T05:39:20;11.60;99.90
19085;DHT22;9675;51.538;6.728;2023-04-24T05:41:48;11.60;99.90
19085;DHT22;9675;51.538;6.728;2023-04-24T05:44:15;11.60;99.90
19085;DHT22;9675;51.538;6.728;2023-04-24T05:46:42;11.60;99.90
19085;DHT22;9675;51.538;6.728;2023-04-24T05:49:10;11.60;99.90
19085;DHT22;9675;51.538;6.728;2023-04-24T05:51:37;11.60;99.90
19085;DHT22;9675;51.538;6.728;2023-04-24T05:54:04;11.60;99.90
19085;DHT22;9675;51.538;6.728;2023-04-24T05:56:31;11.50;99.90
19085;DHT22;9675;51.538;6.728;2023-04-24T05:59:00;11.50;99.90
19085;DHT22;9675;51.538;6.728;2023-04-24T06:01:27;11.50;99.90
19085;DHT22;9675;51.538;6.728;2023-04-24T06:03:55;11.60;99.90
19085;DHT22;9675;51.538;6.728;2023-04-24T06:06:22;11.50;99.90
19085;DHT22;9675;51.538;6.728;2023-04-24T06:08:51;11.60;99.90
19085;DHT22;9675;51.538;6.728;2023-04-24T06:11:18;11.50;99.90
19085;DHT22;9675;51.538;6.728;2023-04-24T06:13:46;11.50;99.90
19085;DHT22;9675;51.538;6.728;2023-04-24T06:16:16;11.50;99.90
19085;DHT22;9675;51.538;6.728;2023-04-24T06:18:43;11.50;99.90
19085;DHT22;9675;51.538;6.728;2023-04-24T06:21:12;11.40;99.90
19085;DHT22;9675;51.538;6.728;2023-04-24T06:23:39;11.40;99.90
19085;DHT22;9675;51.538;6.728;2023-04-24T06:26:06;11.40;99.90
19085;DHT22;9675;51.538;6.728;2023-04-24T06:28:33;11.40;99.90
19085;DHT22;9675;51.538;6.728;2023-04-24T06:31:00;11.40;99.90
19085;DHT22;9675;51.538;6.728;2023-04-24T06:33:28;11.40;99.90
19085;DHT22;9675;51.538;6.728;2023-04-24T06:35:56;11.40;99.90
19085;DHT22;9675;51.538;6.728;2023-04-24T06:38:23;11.30;99.90
19085;DHT22;9675;51.538;6.728;2023-04-24T06:40:51;11.30;99.90
19085;DHT22;9675;51.538;6.728;2023-04-24T06:43:18;11.30;99.90
19085;DHT22;9675;51.538;6.728;2023-04-24T06:45:45;11.30;99.90
19085;DHT22;9675;51.538;6.728;2023-04-24T06:48:12;11.30;99.90
19085;DHT22;9675;51.538;6.728;2023-04-24T06:50:42;11.30;99.90
19085;DHT22;9675;51.538;6.728;2023-04-24T06:53:09;11.30;99.90
19085;DHT22;9675;51.538;6.728;2023-04-24T06:55:38;11.30;99.90
19085;DHT22;9675;51.538;6.728;2023-04-24T06:58:05;11.30;99.90
19085;DHT22;9675;51.538;6.728;2023-04-24T07:00:32;11.30;99.90
19085;DHT22;9675;51.538;6.728;2023-04-24T07:02:59;11.30;99.90
19085;DHT22;9675;51.538;6.728;2023-04-24T07:05:26;11.20;99.90
19085;DHT22;9675;51.538;6.728;2023-04-24T07:07:55;11.20;99.90
19085;DHT22;9675;51.538;6.728;2023-04-24T07:10:23;11.20;99.90
19085;DHT22;9675;51.538;6.728;2023-04-24T07:12:52;11.20;99.90
19085;DHT22;9675;51.538;6.728;2023-04-24T07:15:19;11.20;99.90
19085;DHT22;9675;51.538;6.728;2023-04-24T07:17:47;11.20;99.90
19085;DHT22;9675;51.538;6.728;2023-04-24T07:20:14;11.20;99.90
19085;DHT22;9675;51.538;6.728;2023-04-24T07:22:41;11.10;99.90
19085;DHT22;9675;51.538;6.728;2023-04-24T07:25:10;11.20;99.90
19085;DHT22;9675;51.538;6.728;2023-04-24T07:27:37;11.10;99.90
19085;DHT22;9675;51.538;6.728;2023-04-24T07:30:05;11.10;99.90
19085;DHT22;9675;51.538;6.728;2023-04-24T07:32:33;11.10;99.90
19085;DHT22;9675;51.538;6.728;2023-04-24T07:35:01;11.10;99.90
19085;DHT22;9675;51.538;6.728;2023-04-24T07:37:28;11.10;99.90
19085;DHT22;9675;51.538;6.728;2023-04-24T07:39:55;11.10;99.90
19085;DHT22;9675;51.538;6.728;2023-04-24T07:42:24;11.10;99.90
19085;DHT22;9675;51.538;6.728;2023-04-24T07:44:51;11.10;99.90
19085;DHT22;9675;51.538;6.728;2023-04-24T07:47:18;11.10;99.90
19085;DHT22;9675;51.538;6.728;2023-04-24T07:49:45;11.10;99.90
19085;DHT22;9675;51.538;6.728;2023-04-24T07:52:12;11.10;99.90
19085;DHT22;9675;51.538;6.728;2023-04-24T07:54:39;11.00;99.90
19085;DHT22;9675;51.538;6.728;2023-04-24T07:57:08;11.00;99.90
19085;DHT22;9675;51.538;6.728;2023-04-24T07:59:36;11.00;99.90
19085;DHT22;9675;51.538;6.728;2023-04-24T08:02:03;11.00;99.90
19085;DHT22;9675;51.538;6.728;2023-04-24T08:04:31;11.00;99.90
19085;DHT22;9675;51.538;6.728;2023-04-24T08:06:58;11.00;99.90
19085;DHT22;9675;51.538;6.728;2023-04-24T08:09:25;11.00;99.90
19085;DHT22;9675;51.538;6.728;2023-04-24T08:11:52;11.00;99.90
19085;DHT22;9675;51.538;6.728;2023-04-24T08:14:19;11.00;99.90
19085;DHT22;9675;51.538;6.728;2023-04-24T08:16:48;11.10;99.90
19085;DHT22;9675;51.538;6.728;2023-04-24T08:19:16;11.10;99.90
19085;DHT22;9675;51.538;6.728;2023-04-24T08:21:43;11.10;99.90
19085;DHT22;9675;51.538;6.728;2023-04-24T08:24:10;11.10;99.90
19085;DHT22;9675;51.538;6.728;2023-04-24T08:26:37;11.10;99.90
19085;DHT22;9675;51.538;6.728;2023-04-24T08:29:04;11.10;99.90
19085;DHT22;9675;51.538;6.728;2023-04-24T08:31:32;11.10;99.90
19085;DHT22;9675;51.538;6.728;2023-04-24T08:34:00;11.10;99.90
19085;DHT22;9675;51.538;6.728;2023-04-24T08:36:28;11.10;99.90
19085;DHT22;9675;51.538;6.728;2023-04-24T08:38:55;11.10;99.90
19085;DHT22;9675;51.538;6.728;2023-04-24T08:41:22;11.10;99.90
19085;DHT22;9675;51.538;6.728;2023-04-24T08:43:52;11.10;99.90
19085;DHT22;9675;51.538;6.728;2023-04-24T08:46:20;11.10;99.90
19085;DHT22;9675;51.538;6.728;2023-04-24T08:48:49;11.10;99.90
19085;DHT22;9675;51.538;6.728;2023-04-24T08:51:19;11.10;99.90
19085;DHT22;9675;51.538;6.728;2023-04-24T08:53:47;11.10;99.90
19085;DHT22;9675;51.538;6.728;2023-04-24T08:56:14;11.10;99.90
19085;DHT22;9675;51.538;6.728;2023-04-24T08:58:43;11.10;99.90
19085;DHT22;9675;51.538;6.728;2023-04-24T09:01:11;11.10;99.90
19085;DHT22;9675;51.538;6.728;2023-04-24T09:03:39;11.10;99.90
19085;DHT22;9675;51.538;6.728;2023-04-24T09:06:08;11.10;99.90
19085;DHT22;9675;51.538;6.728;2023-04-24T09:08:38;11.10;99.90
19085;DHT22;9675;51.538;6.728;2023-04-24T09:11:08;11.20;99.90
19085;DHT22;9675;51.538;6.728;2023-04-24T09:13:35;11.20;99.90
19085;DHT22;9675;51.538;6.728;2023-04-24T09:16:03;11.10;99.90
19085;DHT22;9675;51.538;6.728;2023-04-24T09:18:31;11.20;99.90
19085;DHT22;9675;51.538;6.728;2023-04-24T09:20:59;11.10;99.90
19085;DHT22;9675;51.538;6.728;2023-04-24T09:23:29;11.10;99.90
19085;DHT22;9675;51.538;6.728;2023-04-24T09:25:59;11.10;99.90
19085;DHT22;9675;51.538;6.728;2023-04-24T09:28:31;11.10;99.90
19085;DHT22;9675;51.538;6.728;2023-04-24T09:31:06;11.10;99.90
19085;DHT22;9675;51.538;6.728;2023-04-24T09:33:34;11.10;99.90
19085;DHT22;9675;51.538;6.728;2023-04-24T09:36:02;11.10;99.90
19085;DHT22;9675;51.538;6.728;2023-04-24T09:38:34;11.10;99.90
19085;DHT22;9675;51.538;6.728;2023-04-24T09:41:05;11.10;99.90
19085;DHT22;9675;51.538;6.728;2023-04-24T09:43:34;11.10;99.90
19085;DHT22;9675;51.538;6.728;2023-04-24T09:46:05;11.00;99.90
19085;DHT22;9675;51.538;6.728;2023-04-24T09:48:36;11.10;99.90
19085;DHT22;9675;51.538;6.728;2023-04-24T09:51:05;11.00;99.90
19085;DHT22;9675;51.538;6.728;2023-04-24T09:53:36;11.00;99.90
19085;DHT22;9675;51.538;6.728;2023-04-24T09:56:09;11.10;99.90
19085;DHT22;9675;51.538;6.728;2023-04-24T09:58:38;11.00;99.90
19085;DHT22;9675;51.538;6.728;2023-04-24T10:01:05;11.00;99.90
19085;DHT22;9675;51.538;6.728;2023-04-24T10:03:33;11.00;99.90
19085;DHT22;9675;51.538;6.728;2023-04-24T10:06:03;11.00;99.90
19085;DHT22;9675;51.538;6.728;2023-04-24T10:08:34;11.10;99.90
19085;DHT22;9675;51.538;6.728;2023-04-24T10:11:02;11.10;99.90
19085;DHT22;9675;51.538;6.728;2023-04-24T10:13:32;11.10;99.90
19085;DHT22;9675;51.538;6.728;2023-04-24T10:16:00;11.00;99.90
19085;DHT22;9675;51.538;6.728;2023-04-24T10:18:30;11.10;99.90
19085;DHT22;9675;51.538;6.728;2023-04-24T10:21:00;11.00;99.90
19085;DHT22;9675;51.538;6.728;2023-04-24T10:23:28;11.00;99.90
19085;DHT22;9675;51.538;6.728;2023-04-24T10:25:56;11.00;99.90
19085;DHT22;9675;51.538;6.728;2023-04-24T10:28:26;11.00;99.90
19085;DHT22;9675;51.538;6.728;2023-04-24T10:30:56;11.00;99.90
19085;DHT22;9675;51.538;6.728;2023-04-24T10:33:26;11.00;99.90
19085;DHT22;9675;51.538;6.728;2023-04-24T10:35:53;11.00;99.90
19085;DHT22;9675;51.538;6.728;2023-04-24T10:38:25;11.00;99.90
19085;DHT22;9675;51.538;6.728;2023-04-24T10:41:06;11.00;99.90
19085;DHT22;9675;51.538;6.728;2023-04-24T10:43:35;11.00;99.90
19085;DHT22;9675;51.538;6.728;2023-04-24T10:46:05;11.00;99.90
19085;DHT22;9675;51.538;6.728;2023-04-24T10:48:33;11.00;99.90
19085;DHT22;9675;51.538;6.728;2023-04-24T10:51:01;11.00;99.90
19085;DHT22;9675;51.538;6.728;2023-04-24T10:53:30;11.00;99.90
19085;DHT22;9675;51.538;6.728;2023-04-24T10:55:58;11.00;99.90
19085;DHT22;9675;51.538;6.728;2023-04-24T10:58:37;11.00;99.90
19085;DHT22;9675;51.538;6.728;2023-04-24T11:01:07;11.00;99.90
19085;DHT22;9675;51.538;6.728;2023-04-24T11:03:35;11.10;99.90
19085;DHT22;9675;51.538;6.728;2023-04-24T11:06:04;11.10;99.90
19085;DHT22;9675;51.538;6.728;2023-04-24T11:08:37;11.10;99.90
19085;DHT22;9675;51.538;6.728;2023-04-24T11:11:10;11.10;99.90
19085;DHT22;9675;51.538;6.728;2023-04-24T11:14:03;11.20;99.90
19085;DHT22;9675;51.538;6.728;2023-04-24T11:16:41;11.20;99.90
19085;DHT22;9675;51.538;6.728;2023-04-24T11:19:20;11.20;99.90
19085;DHT22;9675;51.538;6.728;2023-04-24T11:21:55;11.20;99.90
19085;DHT22;9675;51.538;6.728;2023-04-24T11:24:27;11.30;99.90
19085;DHT22;9675;51.538;6.728;2023-04-24T11:26:57;11.30;99.90
19085;DHT22;9675;51.538;6.728;2023-04-24T11:29:44;11.30;99.90
19085;DHT22;9675;51.538;6.728;2023-04-24T11:32:24;11.30;99.90
19085;DHT22;9675;51.538;6.728;2023-04-24T11:34:54;11.30;99.90
19085;DHT22;9675;51.538;6.728;2023-04-24T11:37:24;11.30;99.90
19085;DHT22;9675;51.538;6.728;2023-04-24T11:39:59;11.30;99.90
19085;DHT22;9675;51.538;6.728;2023-04-24T11:42:26;11.30;99.90
19085;DHT22;9675;51.538;6.728;2023-04-24T11:44:58;11.30;99.90
19085;DHT22;9675;51.538;6.728;2023-04-24T11:47:32;11.30;99.90
19085;DHT22;9675;51.538;6.728;2023-04-24T11:50:04;11.30;99.90
19085;DHT22;9675;51.538;6.728;2023-04-24T11:52:37;11.30;99.90
19085;DHT22;9675;51.538;6.728;2023-04-24T11:55:07;11.30;99.90
19085;DHT22;9675;51.538;6.728;2023-04-24T11:57:50;11.30;99.90
19085;DHT22;9675;51.538;6.728;2023-04-24T12:00:23;11.40;99.90
19085;DHT22;9675;51.538;6.728;2023-04-24T12:03:04;11.40;99.90
19085;DHT22;9675;51.538;6.728;2023-04-24T12:05:33;11.40;99.90
19085;DHT22;9675;51.538;6.728;2023-04-24T12:08:01;11.40;99.90
19085;DHT22;9675;51.538;6.728;2023-04-24T12:10:30;11.40;99.90
19085;DHT22;9675;51.538;6.728;2023-04-24T12:12:59;11.40;99.90
19085;DHT22;9675;51.538;6.728;2023-04-24T12:15:26;11.40;99.90
19085;DHT22;9675;51.538;6.728;2023-04-24T12:17:55;11.40;99.90
19085;DHT22;9675;51.538;6.728;2023-04-24T12:20:28;11.40;99.90
19085;DHT22;9675;51.538;6.728;2023-04-24T12:22:59;11.40;99.90
19085;DHT22;9675;51.538;6.728;2023-04-24T12:25:29;11.40;99.90
19085;DHT22;9675;51.538;6.728;2023-04-24T12:28:10;11.40;99.90
19085;DHT22;9675;51.538;6.728;2023-04-24T12:30:40;11.40;99.90
19085;DHT22;9675;51.538;6.728;2023-04-24T12:33:11;11.40;99.90
19085;DHT22;9675;51.538;6.728;2023-04-24T12:35:40;11.50;99.90
19085;DHT22;9675;51.538;6.728;2023-04-24T12:38:08;11.50;99.90
19085;DHT22;9675;51.538;6.728;2023-04-24T12:40:38;11.50;99.90
19085;DHT22;9675;51.538;6.728;2023-04-24T12:43:17;11.50;99.90
19085;DHT22;9675;51.538;6.728;2023-04-24T12:45:56;11.50;99.90
19085;DHT22;9675;51.538;6.728;2023-04-24T12:48:26;11.50;99.90
19085;DHT22;9675;51.538;6.728;2023-04-24T12:50:54;11.50;99.90
19085;DHT22;9675;51.538;6.728;2023-04-24T12:53:26;11.50;99.90
19085;DHT22;9675;51.538;6.728;2023-04-24T12:55:57;11.60;99.90
19085;DHT22;9675;51.538;6.728;2023-04-24T12:58:26;11.60;99.90
19085;DHT22;9675;51.538;6.728;2023-04-24T13:00:57;11.60;99.90
19085;DHT22;9675;51.538;6.728;2023-04-24T13:03:27;11.60;99.90
19085;DHT22;9675;51.538;6.728;2023-04-24T13:05:55;11.60;99.90
19085;DHT22;9675;51.538;6.728;2023-04-24T13:08:22;11.60;99.90
19085;DHT22;9675;51.538;6.728;2023-04-24T13:10:49;11.60;99.90
19085;DHT22;9675;51.538;6.728;2023-04-24T13:13:17;11.60;99.90
19085;DHT22;9675;51.538;6.728;2023-04-24T13:15:44;11.60;99.90
19085;DHT22;9675;51.538;6.728;2023-04-24T13:18:11;11.60;99.90
19085;DHT22;9675;51.538;6.728;2023-04-24T13:20:39;11.60;99.90
19085;DHT22;9675;51.538;6.728;2023-04-24T13:23:07;11.60;99.90
19085;DHT22;9675;51.538;6.728;2023-04-24T13:25:35;11.70;99.90
19085;DHT22;9675;51.538;6.728;2023-04-24T13:28:04;11.70;99.90
19085;DHT22;9675;51.538;6.728;2023-04-24T13:30:32;11.70;99.90
19085;DHT22;9675;51.538;6.728;2023-04-24T13:32:59;11.70;99.90
19085;DHT22;9675;51.538;6.728;2023-04-24T13:35:27;11.70;99.90
19085;DHT22;9675;51.538;6.728;2023-04-24T13:37:55;11.70;99.90
19085;DHT22;9675;51.538;6.728;2023-04-24T13:40:23;11.70;99.90
19085;DHT22;9675;51.538;6.728;2023-04-24T13:42:50;11.70;99.90
19085;DHT22;9675;51.538;6.728;2023-04-24T13:45:17;11.80;99.90
19085;DHT22;9675;51.538;6.728;2023-04-24T13:47:44;11.70;99.90
19085;DHT22;9675;51.538;6.728;2023-04-24T13:50:11;11.80;99.90
19085;DHT22;9675;51.538;6.728;2023-04-24T13:52:38;11.80;99.90
19085;DHT22;9675;51.538;6.728;2023-04-24T13:55:07;11.80;99.90
19085;DHT22;9675;51.538;6.728;2023-04-24T13:57:35;11.80;99.90
19085;DHT22;9675;51.538;6.728;2023-04-24T14:00:02;11.80;99.90
19085;DHT22;9675;51.538;6.728;2023-04-24T14:02:35;11.90;99.90
19085;DHT22;9675;51.538;6.728;2023-04-24T14:05:03;11.90;99.90
19085;DHT22;9675;51.538;6.728;2023-04-24T14:07:30;11.90;99.90
19085;DHT22;9675;51.538;6.728;2023-04-24T14:09:57;11.90;99.90
19085;DHT22;9675;51.538;6.728;2023-04-24T14:12:27;11.90;99.90
19085;DHT22;9675;51.538;6.728;2023-04-24T14:14:54;12.00;99.90
19085;DHT22;9675;51.538;6.728;2023-04-24T14:17:21;12.00;99.90
19085;DHT22;9675;51.538;6.728;2023-04-24T14:19:48;12.00;99.90
19085;DHT22;9675;51.538;6.728;2023-04-24T14:22:15;12.00;99.90
19085;DHT22;9675;51.538;6.728;2023-04-24T14:24:42;12.00;99.90
19085;DHT22;9675;51.538;6.728;2023-04-24T14:27:09;12.00;99.90
19085;DHT22;9675;51.538;6.728;2023-04-24T14:29:38;12.00;99.90
19085;DHT22;9675;51.538;6.728;2023-04-24T14:32:05;12.00;99.90
19085;DHT22;9675;51.538;6.728;2023-04-24T14:34:32;12.00;99.90
19085;DHT22;9675;51.538;6.728;2023-04-24T14:36:59;12.10;99.90
19085;DHT22;9675;51.538;6.728;2023-04-24T14:39:26;12.00;99.90
19085;DHT22;9675;51.538;6.728;2023-04-24T14:41:55;12.00;99.90
19085;DHT22;9675;51.538;6.728;2023-04-24T14:44:23;12.00;99.90
19085;DHT22;9675;51.538;6.728;2023-04-24T14:46:51;12.00;99.90
19085;DHT22;9675;51.538;6.728;2023-04-24T14:49:18;12.00;99.90
19085;DHT22;9675;51.538;6.728;2023-04-24T14:51:45;11.90;99.90
19085;DHT22;9675;51.538;6.728;2023-04-24T14:54:13;12.00;99.90
19085;DHT22;9675;51.538;6.728;2023-04-24T14:56:40;12.00;99.90
19085;DHT22;9675;51.538;6.728;2023-04-24T14:59:09;12.00;99.90
19085;DHT22;9675;51.538;6.728;2023-04-24T15:01:36;12.00;99.90
19085;DHT22;9675;51.538;6.728;2023-04-24T15:04:04;12.10;99.90
19085;DHT22;9675;51.538;6.728;2023-04-24T15:06:31;12.10;99.90
19085;DHT22;9675;51.538;6.728;2023-04-24T15:08:59;12.10;99.90
19085;DHT22;9675;51.538;6.728;2023-04-24T15:11:26;12.10;99.90
19085;DHT22;9675;51.538;6.728;2023-04-24T15:13:53;12.10;99.90
19085;DHT22;9675;51.538;6.728;2023-04-24T15:16:20;12.10;99.90
19085;DHT22;9675;51.538;6.728;2023-04-24T15:18:47;12.10;99.90
19085;DHT22;9675;51.538;6.728;2023-04-24T15:21:16;12.00;99.90
19085;DHT22;9675;51.538;6.728;2023-04-24T15:23:43;12.00;99.90
19085;DHT22;9675;51.538;6.728;2023-04-24T15:26:10;12.00;99.90
19085;DHT22;9675;51.538;6.728;2023-04-24T15:28:37;12.00;99.90
19085;DHT22;9675;51.538;6.728;2023-04-24T15:31:04;12.00;99.90
19085;DHT22;9675;51.538;6.728;2023-04-24T15:33:31;12.00;99.90
19085;DHT22;9675;51.538;6.728;2023-04-24T15:35:58;12.00;99.90
19085;DHT22;9675;51.538;6.728;2023-04-24T15:38:26;12.00;99.90
19085;DHT22;9675;51.538;6.728;2023-04-24T15:40:54;12.10;99.90
19085;DHT22;9675;51.538;6.728;2023-04-24T15:43:20;12.10;99.90
19085;DHT22;9675;51.538;6.728;2023-04-24T15:45:49;12.10;99.90
19085;DHT22;9675;51.538;6.728;2023-04-24T15:48:16;12.20;99.90
19085;DHT22;9675;51.538;6.728;2023-04-24T15:50:45;12.30;99.90
19085;DHT22;9675;51.538;6.728;2023-04-24T15:53:12;12.30;99.90